Impacts TAF Board
For situational awareness. Not to be used for flight planning purposes.
IDs:

KPNS - Pensacola Intl, FL, US

Issued at 0520 UTC 21 Oct 2018
Updated at 0830 UTC 21 Oct 2018
Potential Impact None Slight Moderate High
Time0753Z 21/09Z 21/10Z 21/11Z 21/12Z 21/13Z 21/14Z 21/15Z 21/16Z 21/17Z 21/18Z 21/19Z 21/20Z 21/21Z>>
Type OBS PRVL PRVL PRVL PRVL PRVL PRVL PRVL PRVL PRVL PRVL PRVL PRVL PRVL
VIS 10 >6 >6 >6 >6 >6 >6 >6 >6 >6 >6 >6 >6 >6
CIG -- -- -- -- -- -- -- -- -- -- -- -- -- --
Cover CLR SKC SKC SKC SKC SKC SKC SKC SKC SKC SKC SKC SKC SKC
FltCat VFR VFR VFR VFR VFR VFR VFR VFR VFR VFR VFR VFR VFR VFR
WX -- -- -- -- -- -- -- -- -- -- -- -- -- --
WDir 360 10 10 10 10 10 10 30 30 30 30 30 30 30
WSpd 15 9 9 9 9 9 9 15 15 15 15 15 15 15
WGst 21 -- -- -- -- -- -- -- -- -- -- -- -- --
Raw TAF
KPNS 210520Z 2106/2206 35012KT P6SM FEW110
  FM210900 01009KT P6SM SKC
  FM211500 03015KT P6SM SKC
  FM220300 02004KT P6SM SKC


Raw METAR
KPNS 210753Z 36015G21KT 10SM CLR 17/13 A3011 RMK AO2 SLP199 T01670128
KPNS 210653Z 36013G20KT 10SM SCT120 17/14 A3012 RMK AO2 SLP199 T01720139
KPNS 210553Z 35012G19KT 10SM BKN120 18/15 A3011 RMK AO2 SLP197 60001 T01780150 10239 20178 403110178 53005
KPNS 210531Z 35013KT 10SM SCT015 18/15 A3011 RMK AO2 T01780150

METAR Board
Radar Display
Forecast Discussion
For situational awareness. Not to be used for flight planning purposes.